Time;durP1;ratioP1;P1;durP2;ratioP2;P2;SDS_P1;SDS_P2;PMS_P1;PMS_P2;Temp;Humidity;BMP_temperature;BMP_pressure;BME280_temperature;BME280_humidity;BME280_pressure;Samples;Min_cycle;Max_cycle;Signal;HPM_P1;HPM_P2
2020/12/12 00:00:16;;;;;;;3.20;0.70;;;;;;;4.20;100.00;99209.53;5010708;28;20267;-76
2020/12/12 00:02:41;;;;;;;4.37;0.97;;;;;;;4.06;100.00;99206.59;4993717;28;20194;-75
2020/12/12 00:05:07;;;;;;;3.80;0.70;;;;;;;4.15;100.00;99204.50;5001003;28;20177;-76
2020/12/12 00:07:33;;;;;;;2.30;0.40;;;;;;;4.21;100.00;99213.78;5010730;28;20182;-76
2020/12/12 00:09:58;;;;;;;3.30;0.73;;;;;;;4.28;100.00;99207.81;5011782;28;20212;-76
2020/12/12 00:12:24;;;;;;;2.80;1.10;;;;;;;4.27;100.00;99211.59;5011935;28;20195;-77
2020/12/12 00:14:49;;;;;;;3.23;0.97;;;;;;;4.20;100.00;99206.88;5013334;28;20187;-76
2020/12/12 00:17:15;;;;;;;2.40;0.90;;;;;;;4.24;100.00;99207.72;5013771;28;20187;-75
2020/12/12 00:19:40;;;;;;;5.57;1.30;;;;;;;4.18;100.00;99216.34;5009279;28;20287;-76
2020/12/12 00:22:06;;;;;;;4.20;0.90;;;;;;;4.05;100.00;99209.56;5012706;28;20203;-75
2020/12/12 00:24:31;;;;;;;2.00;0.43;;;;;;;4.08;100.00;99209.69;5013161;28;20234;-75
2020/12/12 00:26:58;;;;;;;2.87;0.80;;;;;;;4.02;100.00;99208.41;5004932;28;20629;-75
2020/12/12 00:29:24;;;;;;;3.10;0.80;;;;;;;4.12;100.00;99209.75;5006266;28;20211;-76
2020/12/12 00:31:54;;;;;;;3.33;0.40;;;;;;;4.25;100.00;99209.28;5006788;28;20448;-75
2020/12/12 00:34:20;;;;;;;3.03;0.60;;;;;;;4.20;100.00;99200.81;5011313;28;20573;-75
2020/12/12 00:36:45;;;;;;;4.20;1.17;;;;;;;4.15;100.00;99201.84;5011372;28;20949;-76
2020/12/12 00:39:11;;;;;;;3.17;1.13;;;;;;;4.04;100.00;99192.06;5001905;28;20239;-76
2020/12/12 00:41:38;;;;;;;1.57;0.27;;;;;;;4.04;100.00;99200.06;5008613;28;20834;-76
2020/12/12 00:44:05;;;;;;;2.83;0.80;;;;;;;4.13;100.00;99189.97;4996233;28;20447;-76
2020/12/12 00:46:31;;;;;;;3.57;1.03;;;;;;;3.97;100.00;99190.00;5008964;28;20468;-76
2020/12/12 00:48:56;;;;;;;5.63;1.07;;;;;;;4.16;100.00;99197.28;5004140;28;20522;-76
2020/12/12 00:51:22;;;;;;;3.40;0.50;;;;;;;4.19;100.00;99194.69;5000902;28;20443;-75
2020/12/12 00:53:49;;;;;;;5.40;0.50;;;;;;;4.24;100.00;99201.66;4994806;28;20287;-76
2020/12/12 00:56:16;;;;;;;3.87;0.80;;;;;;;4.14;100.00;99186.97;5002174;28;20508;-77
2020/12/12 00:58:42;;;;;;;2.17;0.40;;;;;;;4.23;100.00;99205.41;5009477;28;20453;-75
2020/12/12 01:01:09;;;;;;;3.40;0.93;;;;;;;4.08;100.00;99192.94;5005975;28;20538;-77
2020/12/12 01:03:35;;;;;;;2.33;0.20;;;;;;;4.27;100.00;99195.63;5012989;28;20443;-76
2020/12/12 01:06:00;;;;;;;1.90;0.43;;;;;;;4.35;100.00;99200.75;5007255;28;20443;-77
2020/12/12 01:08:26;;;;;;;3.40;0.70;;;;;;;4.33;100.00;99196.88;5011448;28;20681;-77
2020/12/12 01:10:54;;;;;;;1.97;0.50;;;;;;;4.17;100.00;99193.50;5011915;28;20202;-77
2020/12/12 01:13:20;;;;;;;3.53;1.17;;;;;;;4.24;100.00;99186.41;5008640;28;20185;-77
2020/12/12 01:15:45;;;;;;;2.03;0.83;;;;;;;4.05;100.00;99198.94;5005954;28;20440;-77
2020/12/12 01:18:11;;;;;;;3.70;0.80;;;;;;;4.15;100.00;99201.06;5014768;28;20188;-76
2020/12/12 01:20:38;;;;;;;5.40;1.03;;;;;;;3.90;100.00;99197.06;5012468;28;20571;-77
2020/12/12 01:23:03;;;;;;;4.03;0.80;;;;;;;3.91;100.00;99191.41;5007964;28;20731;-76
2020/12/12 01:25:29;;;;;;;3.50;0.77;;;;;;;3.98;100.00;99188.13;5013069;28;20435;-76
2020/12/12 01:27:55;;;;;;;4.70;1.00;;;;;;;3.98;100.00;99185.47;5012585;28;20453;-77
2020/12/12 01:30:21;;;;;;;3.77;0.80;;;;;;;3.74;100.00;99188.31;5008033;28;20306;-77
2020/12/12 01:32:47;;;;;;;2.50;0.57;;;;;;;3.78;100.00;99181.97;5005637;28;20516;-77
2020/12/12 01:35:13;;;;;;;4.27;1.20;;;;;;;3.99;100.00;99187.03;4999134;28;20181;-77
2020/12/12 01:37:38;;;;;;;3.50;0.80;;;;;;;4.09;100.00;99181.13;5012159;28;20505;-77
2020/12/12 01:40:04;;;;;;;3.10;0.60;;;;;;;4.11;100.00;99186.88;5009384;28;20253;-77
2020/12/12 01:42:33;;;;;;;4.73;1.03;;;;;;;4.15;100.00;99191.19;5003825;28;20189;-76
2020/12/12 01:45:19;;;;;;;3.53;0.93;;;;;;;4.20;100.00;99188.22;5006838;28;20190;-77
2020/12/12 01:47:45;;;;;;;2.80;1.00;;;;;;;4.18;100.00;99181.75;4936797;29;20464;-76
2020/12/12 01:50:10;;;;;;;2.03;0.70;;;;;;;4.16;100.00;99194.63;4948816;29;20481;-76
2020/12/12 01:52:37;;;;;;;3.57;0.60;;;;;;;4.21;100.00;99189.78;4936642;29;20194;-76
2020/12/12 01:55:03;;;;;;;3.30;0.70;;;;;;;4.13;100.00;99190.75;4950119;29;20187;-76
2020/12/12 01:57:28;;;;;;;4.53;1.10;;;;;;;4.00;100.00;99197.31;4950977;29;20475;-76
2020/12/12 01:59:54;;;;;;;3.80;0.93;;;;;;;4.13;100.00;99192.63;4948662;29;20923;-76
2020/12/12 02:02:20;;;;;;;3.57;1.33;;;;;;;4.32;100.00;99190.00;4951659;29;20201;-76
2020/12/12 02:04:49;;;;;;;2.93;0.93;;;;;;;4.13;100.00;99203.28;4951608;29;20196;-76
2020/12/12 02:07:19;;;;;;;4.53;1.10;;;;;;;4.13;100.00;99200.63;4948060;29;20456;-77
2020/12/12 02:09:46;;;;;;;1.87;0.30;;;;;;;4.13;100.00;99190.75;4950987;29;21208;-76
2020/12/12 02:12:12;;;;;;;3.53;1.07;;;;;;;4.15;100.00;99204.50;4946885;28;20825;-77
2020/12/12 02:14:38;;;;;;;4.20;0.97;;;;;;;4.05;100.00;99209.56;4949154;29;20460;-77
2020/12/12 02:17:06;;;;;;;2.40;0.70;;;;;;;4.10;100.00;99204.00;4947131;29;20445;-77
2020/12/12 02:19:32;;;;;;;4.70;1.30;;;;;;;4.17;100.00;99206.81;4932135;29;20481;-77
2020/12/12 02:21:59;;;;;;;3.60;1.10;;;;;;;4.16;100.00;99213.28;4947217;29;20481;-76
2020/12/12 02:24:25;;;;;;;2.57;0.60;;;;;;;4.13;100.00;99201.41;4970244;28;20529;-77
2020/12/12 02:26:52;;;;;;;3.60;0.90;;;;;;;4.03;100.00;99207.28;5005124;28;20464;-76
2020/12/12 02:29:17;;;;;;;4.57;0.83;;;;;;;4.10;100.00;99212.00;5004759;28;20471;-76
2020/12/12 02:31:44;;;;;;;3.40;0.90;;;;;;;3.82;100.00;99211.34;5010404;28;20945;-77
2020/12/12 02:34:10;;;;;;;2.53;0.70;;;;;;;3.98;100.00;99210.22;5006373;28;20450;-77
2020/12/12 02:36:38;;;;;;;3.70;1.07;;;;;;;3.96;100.00;99209.00;5004090;28;20447;-77
2020/12/12 02:39:06;;;;;;;1.77;0.30;;;;;;;4.05;100.00;99198.94;5003427;28;20468;-76
2020/12/12 02:41:32;;;;;;;3.03;0.60;;;;;;;3.96;100.00;99195.69;5002465;28;20847;-76
2020/12/12 02:43:57;;;;;;;2.50;0.50;;;;;;;4.00;100.00;99196.53;5000220;28;20443;-76
2020/12/12 02:46:23;;;;;;;2.60;1.30;;;;;;;3.94;100.00;99193.38;5009770;28;21203;-76
2020/12/12 02:48:50;;;;;;;3.23;0.87;;;;;;;3.93;100.00;99191.06;4995075;28;20207;-77
2020/12/12 02:51:18;;;;;;;3.73;1.10;;;;;;;3.99;100.00;99189.69;5004277;28;20185;-77
2020/12/12 02:53:44;;;;;;;2.93;0.90;;;;;;;3.96;100.00;99190.38;5005990;28;20442;-77
2020/12/12 02:56:13;;;;;;;4.03;1.20;;;;;;;3.85;100.00;99192.03;5010511;28;20540;-76
2020/12/12 02:58:39;;;;;;;5.73;0.50;;;;;;;3.92;100.00;99206.25;5005478;28;20441;-76
2020/12/12 03:01:05;;;;;;;2.40;0.70;;;;;;;4.03;100.00;99195.84;5008869;28;20470;-75
2020/12/12 03:03:30;;;;;;;1.67;0.30;;;;;;;3.98;100.00;99193.47;5010340;28;20446;-77
2020/12/12 03:05:56;;;;;;;2.93;0.80;;;;;;;3.84;100.00;99193.13;5005124;28;20451;-78
2020/12/12 03:08:22;;;;;;;4.60;1.33;;;;;;;3.72;100.00;99195.91;5004767;28;20205;-76
2020/12/12 03:10:47;;;;;;;3.80;0.70;;;;;;;3.67;100.00;99200.38;5006328;28;20203;-73
2020/12/12 03:13:12;;;;;;;5.10;0.90;;;;;;;3.90;100.00;99203.19;4984992;28;20192;-78
2020/12/12 03:15:58;;;;;;;4.00;0.80;;;;;;;3.78;100.00;99197.16;4991240;28;20193;-76
2020/12/12 03:18:24;;;;;;;2.83;0.70;;;;;;;3.84;100.00;99196.56;4968492;28;20645;-77
2020/12/12 03:20:49;;;;;;;3.73;0.60;;;;;;;4.03;100.00;99195.84;4950772;28;20473;-77
2020/12/12 03:23:14;;;;;;;4.23;0.73;;;;;;;4.15;100.00;99185.06;4950799;28;20715;-77
2020/12/12 03:26:00;;;;;;;2.43;0.50;;;;;;;4.06;100.00;99187.16;4961430;28;20189;-78
2020/12/12 03:28:26;;;;;;;3.53;0.77;;;;;;;3.91;100.00;99196.72;4922600;29;20206;-78
2020/12/12 03:31:11;;;;;;;2.53;0.57;;;;;;;3.95;100.00;99191.50;4913050;29;20471;-77
2020/12/12 03:33:37;;;;;;;3.20;1.17;;;;;;;4.06;100.00;99198.59;4840390;29;20206;-76
2020/12/12 03:36:03;;;;;;;3.97;0.73;;;;;;;3.87;100.00;99203.84;4833338;29;20458;-76
2020/12/12 03:38:28;;;;;;;3.43;0.77;;;;;;;4.01;100.00;99206.84;4819036;29;20672;-75
2020/12/12 03:40:53;;;;;;;3.47;0.50;;;;;;;3.92;100.00;99200.94;4832411;29;20282;-74
2020/12/12 03:43:19;;;;;;;4.27;0.93;;;;;;;3.94;100.00;99205.91;4836924;29;20250;-74
2020/12/12 03:45:45;;;;;;;2.83;0.50;;;;;;;3.78;100.00;99211.25;4839104;29;20802;-75
2020/12/12 03:48:11;;;;;;;3.37;1.10;;;;;;;3.87;100.00;99203.09;4825660;29;20480;-75
2020/12/12 03:50:56;;;;;;;3.67;0.97;;;;;;;3.94;100.00;99211.25;4836370;29;20230;-74
2020/12/12 03:53:22;;;;;;;3.33;0.83;;;;;;;3.81;100.00;99204.47;4770462;30;20205;-74
2020/12/12 03:56:07;;;;;;;3.63;0.87;;;;;;;3.83;100.00;99207.56;4740468;30;20454;-76
2020/12/12 03:58:33;;;;;;;4.10;0.60;;;;;;;3.90;100.00;99221.03;4675890;30;20213;-78
2020/12/12 04:00:58;;;;;;;7.30;1.63;;;;;;;3.93;100.00;99218.44;4661453;30;20955;-75
2020/12/12 04:03:24;;;;;;;6.27;1.00;;;;;;;3.89;100.00;99217.59;4652095;30;20242;-77
2020/12/12 04:05:49;;;;;;;3.50;0.80;;;;;;;3.89;100.00;99212.25;4721963;30;20268;-75
2020/12/12 04:08:15;;;;;;;2.47;0.90;;;;;;;3.74;100.00;99214.94;4747406;30;20461;-75
2020/12/12 04:10:41;;;;;;;2.43;0.60;;;;;;;3.67;100.00;99226.22;4801212;29;20236;-75
2020/12/12 04:13:06;;;;;;;3.90;0.60;;;;;;;3.78;100.00;99218.47;4854479;29;20189;-76
2020/12/12 04:15:32;;;;;;;4.30;1.03;;;;;;;3.77;100.00;99219.59;4849836;29;20257;-76
2020/12/12 04:18:17;;;;;;;3.00;0.97;;;;;;;3.74;100.00;99215.72;4856116;29;20202;-76
2020/12/12 04:20:43;;;;;;;2.53;0.63;;;;;;;3.76;100.00;99223.34;4778444;29;20229;-75
2020/12/12 04:23:29;;;;;;;3.10;0.73;;;;;;;3.81;100.00;99223.88;4783958;29;20545;-76
2020/12/12 04:25:54;;;;;;;4.73;0.90;;;;;;;3.92;100.00;99226.78;4743264;30;20248;-76
2020/12/12 04:28:20;;;;;;;3.20;0.90;;;;;;;3.88;100.00;99224.03;4748455;30;20487;-76
2020/12/12 04:30:45;;;;;;;2.20;0.70;;;;;;;3.92;100.00;99216.13;4783804;29;20591;-77
2020/12/12 04:33:11;;;;;;;2.73;0.60;;;;;;;3.74;100.00;99218.38;4805496;29;20200;-77
2020/12/12 04:35:36;;;;;;;4.07;1.40;;;;;;;3.85;100.00;99221.31;4820680;29;20208;-76
2020/12/12 04:38:02;;;;;;;4.20;1.20;;;;;;;4.03;100.00;99220.59;4856739;29;20304;-77
2020/12/12 04:40:29;;;;;;;6.27;1.60;;;;;;;3.67;100.00;99212.91;4849467;29;20273;-77
2020/12/12 04:42:55;;;;;;;3.27;0.60;;;;;;;3.81;100.00;99209.81;4850259;29;20485;-76
2020/12/12 04:45:21;;;;;;;2.67;0.70;;;;;;;3.98;100.00;99214.75;4856159;29;20461;-76
2020/12/12 04:48:07;;;;;;;8.90;1.50;;;;;;;3.86;100.00;99215.63;4852093;29;20182;-75
2020/12/12 04:50:33;;;;;;;1.50;0.17;;;;;;;3.95;100.00;99216.22;4844359;29;20463;-76
2020/12/12 04:53:25;;;;;;;2.37;0.60;;;;;;;4.12;100.00;99218.50;4836003;29;20451;-76
2020/12/12 04:55:53;;;;;;;3.77;0.80;;;;;;;4.02;100.00;99213.72;4820402;29;20202;-76
2020/12/12 04:58:24;;;;;;;3.70;0.80;;;;;;;3.84;100.00;99215.19;4859982;29;20464;-76
2020/12/12 05:00:51;;;;;;;2.23;0.50;;;;;;;3.98;100.00;99214.75;4899466;29;20495;-76
2020/12/12 05:03:19;;;;;;;2.17;0.70;;;;;;;3.99;100.00;99219.72;4914863;29;20472;-76
2020/12/12 05:05:45;;;;;;;3.10;0.80;;;;;;;3.97;100.00;99215.88;4920055;29;20443;-76
2020/12/12 05:08:12;;;;;;;4.60;1.33;;;;;;;4.01;100.00;99222.03;4920651;29;20455;-77
2020/12/12 05:10:39;;;;;;;4.03;0.93;;;;;;;4.01;100.00;99211.38;4912557;29;20476;-76
2020/12/12 05:13:23;;;;;;;6.30;1.47;;;;;;;3.88;100.00;99218.72;4913668;29;20455;-77
2020/12/12 05:15:51;;;;;;;3.40;0.87;;;;;;;3.92;100.00;99219.56;4908335;29;20444;-78
2020/12/12 05:18:17;;;;;;;2.80;0.50;;;;;;;4.01;100.00;99211.38;4912100;29;20448;-76
2020/12/12 05:20:43;;;;;;;4.17;1.27;;;;;;;4.02;100.00;99226.25;4905961;29;20480;-76
2020/12/12 05:23:11;;;;;;;2.30;0.50;;;;;;;4.07;100.00;99223.31;4906386;29;20460;-76
2020/12/12 05:25:37;;;;;;;1.80;0.33;;;;;;;4.06;100.00;99225.22;4912150;29;20467;-78
2020/12/12 05:28:04;;;;;;;4.27;1.10;;;;;;;3.98;100.00;99215.53;4979955;28;20677;-78
2020/12/12 05:30:30;;;;;;;3.60;0.90;;;;;;;4.02;100.00;99227.03;5009473;28;21024;-78
2020/12/12 05:32:55;;;;;;;2.57;0.67;;;;;;;3.89;100.00;99222.91;5003724;28;20517;-78
2020/12/12 05:35:24;;;;;;;5.77;0.87;;;;;;;3.97;100.00;99218.56;5008646;28;20205;-79
2020/12/12 05:37:49;;;;;;;1.40;0.20;;;;;;;3.88;100.00;99215.28;5004141;28;20614;-77
2020/12/12 05:40:15;;;;;;;3.40;0.77;;;;;;;3.94;100.00;99211.25;5008975;28;20554;-75
2020/12/12 05:42:42;;;;;;;2.77;0.70;;;;;;;3.98;100.00;99214.75;5009003;28;20436;-77
2020/12/12 05:45:08;;;;;;;5.60;0.97;;;;;;;4.00;100.00;99215.19;5002160;28;20186;-77
2020/12/12 05:47:33;;;;;;;3.87;0.70;;;;;;;4.04;100.00;99219.47;5009769;28;20814;-77
2020/12/12 05:50:00;;;;;;;3.43;1.20;;;;;;;3.88;100.00;99220.59;5010800;28;20208;-76
2020/12/12 05:52:27;;;;;;;6.30;0.67;;;;;;;3.84;100.00;99230.41;4996164;28;20200;-76
2020/12/12 05:54:53;;;;;;;3.70;1.23;;;;;;;3.83;100.00;99220.88;5005880;28;20957;-78
2020/12/12 05:57:21;;;;;;;3.93;1.13;;;;;;;3.89;100.00;99222.91;5012385;28;20446;-77
2020/12/12 05:59:47;;;;;;;3.07;0.60;;;;;;;3.95;100.00;99231.44;5002509;28;20692;-77
2020/12/12 06:02:16;;;;;;;4.20;0.80;;;;;;;3.92;100.00;99222.25;4988124;28;20473;-75
2020/12/12 06:04:49;;;;;;;3.17;0.70;;;;;;;3.92;100.00;99216.91;5009065;28;20444;-76
2020/12/12 06:07:26;;;;;;;2.67;0.80;;;;;;;4.05;100.00;99222.91;5007621;28;20450;-78
2020/12/12 06:09:57;;;;;;;5.50;1.10;;;;;;;4.11;100.00;99232.94;5010932;28;20834;-77
2020/12/12 06:12:22;;;;;;;3.53;0.60;;;;;;;4.05;100.00;99226.34;4994664;28;20450;-77
2020/12/12 06:14:53;;;;;;;11.97;0.87;;;;;;;4.08;100.00;99235.53;5006473;28;20534;-75
2020/12/12 06:17:28;;;;;;;3.13;0.80;;;;;;;4.14;100.00;99228.81;5002787;28;20184;-76
2020/12/12 06:19:58;;;;;;;2.63;0.87;;;;;;;4.19;100.00;99233.88;4999950;28;20466;-76
2020/12/12 06:22:26;;;;;;;3.07;0.90;;;;;;;4.23;100.00;99232.06;5004794;28;20803;-76
2020/12/12 06:24:59;;;;;;;5.17;1.80;;;;;;;4.18;100.00;99240.34;5000058;28;20798;-77
2020/12/12 06:27:30;;;;;;;2.70;0.57;;;;;;;4.11;100.00;99235.59;5001751;28;20475;-77
2020/12/12 06:29:57;;;;;;;2.43;0.67;;;;;;;4.17;100.00;99246.75;5007627;28;20463;-76
2020/12/12 06:32:23;;;;;;;2.73;0.43;;;;;;;4.14;100.00;99240.22;5003199;28;20448;-75
2020/12/12 06:34:51;;;;;;;1.93;0.50;;;;;;;4.24;100.00;99245.03;5006503;28;20959;-75
2020/12/12 06:37:30;;;;;;;2.97;0.50;;;;;;;4.24;100.00;99246.94;5003456;28;20226;-76
2020/12/12 06:39:58;;;;;;;2.53;0.70;;;;;;;4.18;100.00;99240.34;5009115;28;20562;-76
2020/12/12 06:42:33;;;;;;;4.47;1.60;;;;;;;3.86;100.00;99239.59;5003618;28;20430;-76
2020/12/12 06:45:01;;;;;;;3.17;0.60;;;;;;;4.03;100.00;99247.22;5003649;28;20449;-75
2020/12/12 06:47:38;;;;;;;6.00;1.47;;;;;;;4.00;100.00;99247.13;5005466;28;20439;-75
2020/12/12 06:50:24;;;;;;;1.80;0.33;;;;;;;3.98;100.00;99254.69;5003907;28;20482;-75
2020/12/12 06:52:52;;;;;;;2.77;0.53;;;;;;;3.92;100.00;99264.06;4947550;29;20458;-75
2020/12/12 06:55:19;;;;;;;3.50;0.67;;;;;;;3.91;100.00;99260.63;4945245;29;20446;-75
2020/12/12 06:57:55;;;;;;;1.80;0.37;;;;;;;4.02;100.00;99263.53;4948535;29;20854;-75
2020/12/12 07:00:30;;;;;;;4.77;1.03;;;;;;;3.90;100.00;99260.97;4944355;28;20560;-74
2020/12/12 07:03:06;;;;;;;1.70;0.50;;;;;;;3.90;100.00;99268.97;4946774;28;20606;-75
2020/12/12 07:05:34;;;;;;;6.23;1.17;;;;;;;3.96;100.00;99264.91;4944776;28;20558;-75
2020/12/12 07:08:05;;;;;;;8.83;1.40;;;;;;;3.90;100.00;99267.06;4938609;28;20453;-75
2020/12/12 07:10:32;;;;;;;3.80;0.83;;;;;;;4.04;100.00;99267.41;4946873;28;20575;-75
2020/12/12 07:13:01;;;;;;;2.80;0.87;;;;;;;4.17;100.00;99270.72;4946518;28;20434;-75
2020/12/12 07:15:30;;;;;;;4.87;0.60;;;;;;;4.16;100.00;99269.22;4950097;28;20438;-75
2020/12/12 07:18:07;;;;;;;2.80;0.43;;;;;;;4.03;100.00;99268.50;4951315;28;20486;-75
2020/12/12 07:20:37;;;;;;;3.33;0.77;;;;;;;4.14;100.00;99268.78;4951726;28;20474;-75
2020/12/12 07:23:05;;;;;;;3.00;0.70;;;;;;;4.21;100.00;99272.38;4948479;28;20452;-75
2020/12/12 07:25:34;;;;;;;4.97;1.23;;;;;;;4.09;100.00;99272.47;4952012;28;20488;-75
2020/12/12 07:28:00;;;;;;;3.00;0.57;;;;;;;4.07;100.00;99271.25;4924100;28;20989;-75
2020/12/12 07:30:26;;;;;;;2.73;0.60;;;;;;;4.00;100.00;99268.44;4982326;28;20461;-75
2020/12/12 07:33:11;;;;;;;3.27;0.80;;;;;;;4.01;100.00;99280.63;4994653;28;20526;-75
2020/12/12 07:35:37;;;;;;;3.20;0.60;;;;;;;4.13;100.00;99283.19;4968230;28;20190;-75
2020/12/12 07:38:06;;;;;;;4.40;1.10;;;;;;;4.15;100.00;99288.94;4952053;28;20452;-75
2020/12/12 07:40:36;;;;;;;4.27;1.17;;;;;;;4.21;100.00;99291.00;4971115;28;20623;-75
2020/12/12 07:43:08;;;;;;;4.33;0.70;;;;;;;4.25;100.00;99294.53;4968689;28;20452;-75
2020/12/12 07:48:12;;;;;;;2.70;0.40;;;;;;;4.21;100.00;99300.88;4958751;28;20457;-75
2020/12/12 07:50:38;;;;;;;3.53;1.20;;;;;;;4.30;100.00;99299.59;4967158;28;20471;-75
2020/12/12 07:53:07;;;;;;;2.60;0.60;;;;;;;4.36;100.00;99306.19;4947184;29;20778;-76
2020/12/12 07:55:33;;;;;;;2.40;0.60;;;;;;;4.27;100.00;99302.19;4945911;28;21036;-75
2020/12/12 07:57:59;;;;;;;2.13;0.57;;;;;;;4.33;100.00;99303.47;4964313;28;20449;-75
2020/12/12 08:00:25;;;;;;;8.20;2.00;;;;;;;4.36;100.00;99308.88;4954523;28;20470;-76
2020/12/12 08:02:57;;;;;;;3.43;0.70;;;;;;;4.32;100.00;99309.88;4971421;28;20584;-75
2020/12/12 08:05:22;;;;;;;2.17;0.73;;;;;;;4.36;100.00;99316.06;4963348;28;20201;-76
2020/12/12 08:07:48;;;;;;;1.63;0.27;;;;;;;4.40;100.00;99322.25;4969685;28;21224;-76
2020/12/12 08:10:14;;;;;;;2.80;1.00;;;;;;;4.28;100.00;99319.69;4970398;28;20515;-76
2020/12/12 08:12:42;;;;;;;3.63;1.40;;;;;;;4.28;100.00;99325.03;4979888;28;20505;-76
2020/12/12 08:15:16;;;;;;;4.40;1.00;;;;;;;4.26;100.00;99325.38;5007648;28;20669;-75
2020/12/12 08:17:42;;;;;;;3.07;0.43;;;;;;;4.31;100.00;99332.34;5010572;28;20440;-75
2020/12/12 08:20:16;;;;;;;4.70;0.93;;;;;;;4.27;100.00;99334.16;5005348;28;20479;-76
2020/12/12 08:22:43;;;;;;;3.03;0.57;;;;;;;4.30;100.00;99331.56;5002700;28;20438;-75
2020/12/12 08:25:10;;;;;;;5.10;1.30;;;;;;;4.36;100.00;99329.41;5008930;28;20431;-76
2020/12/12 08:27:37;;;;;;;2.90;0.80;;;;;;;4.38;100.00;99343.16;5009302;28;20521;-76
2020/12/12 08:30:06;;;;;;;2.70;0.70;;;;;;;4.42;100.00;99346.66;5001452;28;20963;-75
2020/12/12 08:32:43;;;;;;;2.60;0.73;;;;;;;4.37;100.00;99349.63;5008027;28;20870;-76
2020/12/12 08:35:25;;;;;;;2.43;0.80;;;;;;;4.35;100.00;99341.19;5001922;28;20467;-75
2020/12/12 08:38:01;;;;;;;5.73;1.30;;;;;;;4.29;100.00;99359.34;5001632;28;21131;-75
2020/12/12 08:40:32;;;;;;;3.73;0.70;;;;;;;4.30;100.00;99341.44;4999001;28;20973;-75
2020/12/12 08:43:06;;;;;;;4.30;0.70;;;;;;;4.29;100.00;99354.00;4998145;28;20530;-76
2020/12/12 08:45:34;;;;;;;3.83;1.03;;;;;;;4.20;100.00;99353.38;4995869;28;20448;-75
2020/12/12 08:48:04;;;;;;;2.60;0.60;;;;;;;4.36;100.00;99350.72;4996925;28;20537;-75
2020/12/12 08:50:45;;;;;;;3.73;0.90;;;;;;;4.45;100.00;99356.66;5023645;23;20508;-77
2020/12/12 08:53:24;;;;;;;3.57;0.90;;;;;;;4.37;100.00;99354.94;5027647;28;20462;-76
2020/12/12 08:56:11;;;;;;;5.47;1.13;;;;;;;4.26;100.00;99361.88;5036962;28;20835;-76
2020/12/12 08:58:45;;;;;;;4.87;1.07;;;;;;;4.35;100.00;99357.19;5030652;28;20458;-76
2020/12/12 09:01:35;;;;;;;3.60;0.90;;;;;;;4.18;100.00;99360.19;5036592;28;20469;-77
2020/12/12 09:04:01;;;;;;;5.27;1.20;;;;;;;4.31;100.00;99366.97;5031427;28;20952;-77
2020/12/12 09:06:34;;;;;;;3.93;1.00;;;;;;;4.23;100.00;99365.25;5039241;28;20558;-77
2020/12/12 09:09:14;;;;;;;4.57;0.73;;;;;;;4.37;100.00;99360.28;5037846;28;20446;-74
2020/12/12 09:11:45;;;;;;;4.13;1.07;;;;;;;4.46;100.00;99366.97;5012840;28;20511;-76
2020/12/12 09:14:12;;;;;;;5.63;0.97;;;;;;;4.32;100.00;99363.97;5017009;28;20447;-77
2020/12/12 09:16:38;;;;;;;2.77;0.90;;;;;;;4.44;100.00;99376.41;5031754;28;20430;-77
2020/12/12 09:19:05;;;;;;;4.70;1.00;;;;;;;4.48;100.00;99377.28;5033962;28;20533;-76
2020/12/12 09:21:33;;;;;;;3.23;0.77;;;;;;;4.40;100.00;99375.56;5039025;28;20477;-77
2020/12/12 09:23:58;;;;;;;3.40;1.17;;;;;;;4.40;100.00;99387.00;5045491;28;20427;-76
2020/12/12 09:26:25;;;;;;;3.80;0.90;;;;;;;4.47;100.00;99381.06;5047474;28;20767;-77
2020/12/12 09:28:50;;;;;;;3.77;1.37;;;;;;;4.37;100.00;99393.03;5040520;28;20195;-74
2020/12/12 09:31:23;;;;;;;5.00;0.90;;;;;;;4.47;100.00;99381.81;5036172;28;21121;-77
2020/12/12 09:33:49;;;;;;;2.80;0.80;;;;;;;4.50;100.00;99389.13;5017550;28;20235;-77
2020/12/12 09:36:15;;;;;;;4.37;1.37;;;;;;;4.60;100.00;99382.50;5033873;28;21147;-76
2020/12/12 09:38:41;;;;;;;7.43;1.00;;;;;;;4.69;100.00;99393.75;5034488;28;20182;-75
2020/12/12 09:41:06;;;;;;;3.00;1.00;;;;;;;4.44;100.00;99387.06;5033530;28;20585;-77
2020/12/12 09:43:32;;;;;;;3.57;0.90;;;;;;;4.63;100.00;99400.47;5038673;28;20196;-77
2020/12/12 09:45:58;;;;;;;3.73;1.13;;;;;;;4.57;100.00;99402.63;5042003;28;20436;-76
2020/12/12 09:48:24;;;;;;;3.60;1.17;;;;;;;4.38;100.00;99401.78;5035139;28;20519;-76
2020/12/12 09:50:49;;;;;;;5.10;1.07;;;;;;;4.61;100.00;99396.63;5029110;28;20261;-76
2020/12/12 09:53:15;;;;;;;3.43;0.80;;;;;;;4.44;100.00;99393.19;5022084;28;20186;-74
2020/12/12 09:55:41;;;;;;;3.90;1.00;;;;;;;4.56;100.00;99410.97;5031428;28;20263;-77
2020/12/12 09:58:08;;;;;;;6.10;1.07;;;;;;;4.65;100.00;99405.44;5042564;28;20213;-74
2020/12/12 10:00:38;;;;;;;3.50;1.10;;;;;;;4.60;100.00;99409.16;5045628;28;21011;-76
2020/12/12 10:03:05;;;;;;;2.50;0.70;;;;;;;4.62;100.00;99414.94;5042841;28;20441;-77
2020/12/12 10:05:35;;;;;;;9.90;1.50;;;;;;;4.44;100.00;99408.38;5037075;28;20441;-75
2020/12/12 10:08:01;;;;;;;4.03;0.83;;;;;;;4.58;100.00;99401.53;5048774;28;20440;-77
2020/12/12 10:10:28;;;;;;;3.20;0.87;;;;;;;4.55;100.00;99406.75;5046162;28;20519;-75
2020/12/12 10:12:54;;;;;;;3.20;1.00;;;;;;;4.71;100.00;99407.50;5033982;28;20961;-77
2020/12/12 10:15:21;;;;;;;3.43;0.80;;;;;;;4.69;100.00;99399.09;5030186;28;20466;-77
2020/12/12 10:17:47;;;;;;;2.87;1.00;;;;;;;4.61;100.00;99417.94;5032576;28;20265;-76
2020/12/12 10:20:13;;;;;;;3.90;1.03;;;;;;;4.68;100.00;99408.22;5040880;28;20533;-76
2020/12/12 10:22:39;;;;;;;7.07;1.10;;;;;;;4.87;100.00;99408.25;5027951;28;20450;-75
2020/12/12 10:25:06;;;;;;;3.70;0.87;;;;;;;4.91;100.00;99417.13;5034092;28;20438;-75
2020/12/12 10:27:32;;;;;;;2.53;0.70;;;;;;;4.89;100.00;99414.03;5033781;28;20423;-74
2020/12/12 10:29:58;;;;;;;3.70;1.10;;;;;;;4.93;100.00;99425.56;5013130;28;20462;-76
2020/12/12 10:32:23;;;;;;;3.47;1.13;;;;;;;5.08;100.00;99418.63;5027955;28;20453;-75
2020/12/12 10:34:49;;;;;;;3.73;0.87;;;;;;;5.08;100.00;99410.63;5026007;28;20191;-77
2020/12/12 10:37:14;;;;;;;5.10;1.10;;;;;;;5.11;100.00;99417.94;5034898;28;20548;-76
2020/12/12 10:39:48;;;;;;;4.60;1.33;;;;;;;5.05;99.57;99422.75;5030220;28;20205;-77
2020/12/12 10:42:13;;;;;;;2.97;0.63;;;;;;;5.02;99.79;99420.78;5030408;28;20183;-76
2020/12/12 10:44:39;;;;;;;3.47;0.97;;;;;;;5.02;99.82;99425.34;5019232;28;20427;-77
2020/12/12 10:47:04;;;;;;;2.60;0.83;;;;;;;5.14;99.57;99422.56;5030578;28;20237;-76
2020/12/12 10:49:30;;;;;;;3.00;1.27;;;;;;;5.06;100.00;99424.31;5031740;28;20204;-76
2020/12/12 10:51:55;;;;;;;4.17;0.83;;;;;;;5.00;99.76;99430.25;5040284;28;20180;-76
2020/12/12 10:54:21;;;;;;;3.43;1.17;;;;;;;4.92;100.00;99436.53;5024226;28;20351;-73
2020/12/12 10:56:50;;;;;;;3.10;0.50;;;;;;;5.03;100.00;99434.91;5030062;28;20679;-74
2020/12/12 10:59:16;;;;;;;3.53;0.83;;;;;;;5.06;99.90;99429.66;5018815;28;20460;-75
2020/12/12 11:01:41;;;;;;;2.27;0.57;;;;;;;5.00;100.00;99440.91;5029629;28;20265;-76
2020/12/12 11:04:07;;;;;;;5.27;1.53;;;;;;;5.02;100.00;99439.47;5031627;28;20207;-76
2020/12/12 11:06:33;;;;;;;3.93;1.27;;;;;;;5.01;100.00;99440.59;5010807;28;20748;-76
2020/12/12 11:08:59;;;;;;;5.90;1.70;;;;;;;5.01;100.00;99442.47;5021582;28;20599;-76
2020/12/12 11:11:25;;;;;;;4.63;1.03;;;;;;;5.08;100.00;99448.75;5020829;28;20192;-76
2020/12/12 11:13:51;;;;;;;4.53;1.70;;;;;;;4.81;100.00;99441.66;5041737;28;20468;-76
2020/12/12 11:16:24;;;;;;;6.20;1.77;;;;;;;4.91;100.00;99443.00;5032055;28;21073;-76
2020/12/12 11:18:53;;;;;;;3.70;1.10;;;;;;;4.91;100.00;99443.78;5033486;28;20176;-76
2020/12/12 11:21:35;;;;;;;2.40;0.50;;;;;;;5.12;100.00;99444.25;5032255;28;20635;-77
2020/12/12 11:24:00;;;;;;;2.80;0.70;;;;;;;4.96;100.00;99451.50;5033502;28;20513;-75
2020/12/12 11:26:26;;;;;;;5.27;1.40;;;;;;;4.78;100.00;99449.56;5034970;28;21166;-77
2020/12/12 11:28:52;;;;;;;2.63;0.93;;;;;;;4.94;100.00;99443.09;5036439;28;20168;-74
2020/12/12 11:31:20;;;;;;;3.80;1.27;;;;;;;4.88;100.00;99459.72;5024692;28;20282;-76
2020/12/12 11:33:50;;;;;;;4.87;1.60;;;;;;;5.00;100.00;99454.25;5024786;28;20743;-77
2020/12/12 11:36:35;;;;;;;2.43;0.70;;;;;;;5.10;100.00;99451.84;5011600;28;20452;-76
2020/12/12 11:39:08;;;;;;;5.07;0.60;;;;;;;5.21;100.00;99449.38;5026302;28;20962;-76
2020/12/12 11:44:51;;;;;;;4.97;1.63;;;;;;;4.82;100.00;99467.19;5019905;28;20448;-73